Time;durP1;ratioP1;P1;durP2;ratioP2;P2;SDS_P1;SDS_P2;PMS_P1;PMS_P2;Temp;Humidity;BMP_temperature;BMP_pressure;BME280_temperature;BME280_humidity;BME280_pressure;Samples;Min_cycle;Max_cycle;Signal;HPM_P1;HPM_P2
2023/09/11 00:00:17;;;;;;;;;;;;;;;20.29;100.00;101362.63;5009493;28;19963;-75
2023/09/11 00:02:42;;;;;;;;;;;;;;;20.27;100.00;101361.09;5005891;28;19921;-75
2023/09/11 00:05:08;;;;;;;;;;;;;;;20.19;100.00;101357.34;5028211;28;19971;-75
2023/09/11 00:07:33;;;;;;;;;;;;;;;20.18;100.00;101352.91;5011978;28;19927;-75
2023/09/11 00:09:58;;;;;;;;;;;;;;;20.20;100.00;101355.50;5021511;28;19967;-74
2023/09/11 00:12:23;;;;;;;;;;;;;;;20.11;100.00;101345.59;5009284;28;19924;-74
2023/09/11 00:14:49;;;;;;;;;;;;;;;20.11;100.00;101345.59;5045060;28;19925;-75
2023/09/11 00:17:14;;;;;;;;;;;;;;;20.05;100.00;101347.13;5015457;28;20011;-75
2023/09/11 00:19:39;;;;;;;;;;;;;;;20.00;100.00;101350.34;5027386;28;19936;-75
2023/09/11 00:22:04;;;;;;;;;;;;;;;19.98;100.00;101343.38;5016544;28;19925;-75
2023/09/11 00:24:29;;;;;;;;;;;;;;;19.93;100.00;101342.00;5035050;28;19924;-75
2023/09/11 00:26:55;;;;;;;;;;;;;;;19.93;100.00;101341.16;5033312;28;19968;-75
2023/09/11 00:29:20;;;;;;;;;;;;;;;19.84;100.00;101343.00;5035255;28;20046;-75
2023/09/11 00:31:45;;;;;;;;;;;;;;;19.78;100.00;101344.50;5031190;28;19931;-75
2023/09/11 00:34:11;;;;;;;;;;;;;;;19.74;100.00;101339.59;5031870;28;20421;-75
2023/09/11 00:36:36;;;;;;;;;;;;;;;19.68;100.00;101335.66;5036953;28;19931;-75
2023/09/11 00:39:01;;;;;;;;;;;;;;;19.61;100.00;101335.47;5013851;28;20249;-75
2023/09/11 00:41:26;;;;;;;;;;;;;;;19.60;100.00;101338.38;5013912;28;19924;-75
2023/09/11 00:43:52;;;;;;;;;;;;;;;19.56;100.00;101337.84;5019950;28;19921;-75
2023/09/11 00:46:17;;;;;;;;;;;;;;;19.48;100.00;101337.81;5018491;28;20512;-74
2023/09/11 00:48:42;;;;;;;;;;;;;;;19.36;100.00;101333.69;5002856;28;20356;-74
2023/09/11 00:51:07;;;;;;;;;;;;;;;19.36;100.00;101333.69;5016373;28;20445;-75
2023/09/11 00:53:33;;;;;;;;;;;;;;;19.39;100.00;101336.09;5027541;28;19956;-75
2023/09/11 00:55:58;;;;;;;;;;;;;;;19.36;100.00;101317.38;5002279;28;19956;-75
2023/09/11 00:58:23;;;;;;;;;;;;;;;19.36;100.00;101320.94;5030594;28;20341;-75
2023/09/11 01:00:48;;;;;;;;;;;;;;;19.46;100.00;101318.09;5010034;28;19931;-75
2023/09/11 01:03:14;;;;;;;;;;;;;;;19.48;100.00;101321.50;5040629;28;19928;-75
2023/09/11 01:05:39;;;;;;;;;;;;;;;19.46;100.00;101320.81;5029646;28;20187;-75
2023/09/11 01:08:04;;;;;;;;;;;;;;;19.43;100.00;101318.41;5015367;28;20325;-75
2023/09/11 01:10:29;;;;;;;;;;;;;;;19.42;100.00;101324.88;5021386;28;19935;-74
2023/09/11 01:12:57;;;;;;;;;;;;;;;19.43;100.00;101321.13;5000641;28;19921;-75
2023/09/11 01:15:23;;;;;;;;;;;;;;;19.38;100.00;101320.78;5021912;28;19948;-75
2023/09/11 01:18:04;;;;;;;;;;;;;;;19.18;100.00;101294.72;5021542;28;20016;-75
2023/09/11 01:20:49;;;;;;;;;;;;;;;19.25;100.00;101316.66;5029877;28;20120;-75
2023/09/11 01:23:32;;;;;;;;;;;;;;;19.20;100.00;101312.75;5032479;28;19917;-75
2023/09/11 01:26:18;;;;;;;;;;;;;;;19.15;100.00;101318.66;5047636;28;20471;-75
2023/09/11 01:28:43;;;;;;;;;;;;;;;19.14;100.00;101314.25;5025961;28;19927;-75
2023/09/11 01:31:09;;;;;;;;;;;;;;;19.15;100.00;101316.81;5017106;28;19920;-75
2023/09/11 01:33:35;;;;;;;;;;;;;;;19.21;100.00;101314.41;5001201;28;19964;-76
2023/09/11 01:36:00;;;;;;;;;;;;;;;19.22;100.00;101308.84;5024781;28;20367;-77
2023/09/11 01:38:25;;;;;;;;;;;;;;;19.25;100.00;101321.25;5031999;28;19923;-77
2023/09/11 01:40:52;;;;;;;;;;;;;;;19.25;100.00;101313.94;4991784;28;19932;-77
2023/09/11 01:43:17;;;;;;;;;;;;;;;19.24;100.00;101317.69;5019189;28;20485;-75
2023/09/11 01:45:42;;;;;;;;;;;;;;;19.26;100.00;101314.78;5007612;28;19948;-75
2023/09/11 01:48:07;;;;;;;;;;;;;;;19.27;100.00;101319.22;5013533;28;20027;-75
2023/09/11 01:50:33;;;;;;;;;;;;;;;19.32;100.00;101308.69;5001028;28;19931;-75
2023/09/11 01:52:58;;;;;;;;;;;;;;;19.37;100.00;101309.03;5042248;28;20002;-75
2023/09/11 01:55:23;;;;;;;;;;;;;;;19.37;100.00;101306.31;5024805;28;19945;-75
2023/09/11 01:57:48;;;;;;;;;;;;;;;19.40;100.00;101313.28;5009716;28;19924;-75
2023/09/11 02:00:14;;;;;;;;;;;;;;;19.39;100.00;101319.75;5029206;28;19952;-75
2023/09/11 02:02:39;;;;;;;;;;;;;;;19.33;100.00;101316.66;5012381;28;19921;-75
2023/09/11 02:05:04;;;;;;;;;;;;;;;19.32;100.00;101315.00;5012193;28;19924;-75
2023/09/11 02:07:30;;;;;;;;;;;;;;;19.33;100.00;101315.84;5010504;28;20429;-75
2023/09/11 02:09:55;;;;;;;;;;;;;;;19.30;100.00;101308.00;5012272;28;19924;-75
2023/09/11 02:12:22;;;;;;;;;;;;;;;19.29;100.00;101309.00;5011485;28;19920;-75
2023/09/11 02:14:47;;;;;;;;;;;;;;;19.28;100.00;101308.19;5013405;28;19921;-75
2023/09/11 02:17:12;;;;;;;;;;;;;;;19.31;100.00;101309.69;5039942;28;20236;-75
2023/09/11 02:19:38;;;;;;;;;;;;;;;19.36;100.00;101301.03;5030214;28;19924;-75
2023/09/11 02:22:03;;;;;;;;;;;;;;;19.36;100.00;101307.34;4996654;28;19931;-75
2023/09/11 02:24:28;;;;;;;;;;;;;;;19.33;100.00;101297.63;5001008;28;19924;-75
2023/09/11 02:26:55;;;;;;;;;;;;;;;19.31;100.00;101299.69;5003780;28;19955;-75
2023/09/11 02:29:20;;;;;;;;;;;;;;;19.25;100.00;101294.91;5015414;28;20579;-75
2023/09/11 02:31:45;;;;;;;;;;;;;;;19.16;100.00;101298.59;5034946;28;19924;-76
2023/09/11 02:34:10;;;;;;;;;;;;;;;19.07;100.00;101289.56;5026726;28;19960;-75
2023/09/11 02:36:35;;;;;;;;;;;;;;;19.00;100.00;101291.22;5047297;28;19952;-75
2023/09/11 02:39:01;;;;;;;;;;;;;;;18.93;100.00;101298.34;5030270;28;19925;-75
2023/09/11 02:41:26;;;;;;;;;;;;;;;18.81;100.00;101295.00;5009510;28;20015;-75
2023/09/11 02:43:51;;;;;;;;;;;;;;;18.72;100.00;101300.44;5027167;28;20410;-75
2023/09/11 02:46:16;;;;;;;;;;;;;;;18.67;100.00;101294.63;5011303;28;20279;-75
2023/09/11 02:48:45;;;;;;;;;;;;;;;18.63;100.00;101292.41;5015348;28;21064;-76
2023/09/11 02:51:11;;;;;;;;;;;;;;;18.60;100.00;101288.13;5025924;28;20714;-75
2023/09/11 02:53:36;;;;;;;;;;;;;;;18.57;100.00;101292.03;5023620;28;20015;-75
2023/09/11 02:56:01;;;;;;;;;;;;;;;18.51;100.00;101291.81;5024416;28;19920;-75
2023/09/11 02:58:27;;;;;;;;;;;;;;;18.44;100.00;101278.88;4998778;28;20703;-75
2023/09/11 03:00:52;;;;;;;;;;;;;;;18.38;100.00;101286.81;5029408;28;20298;-75
2023/09/11 03:03:17;;;;;;;;;;;;;;;18.32;100.00;101288.28;5014037;28;19925;-75
2023/09/11 03:05:42;;;;;;;;;;;;;;;18.28;100.00;101284.19;5013645;28;20252;-76
2023/09/11 03:08:08;;;;;;;;;;;;;;;18.28;100.00;101281.47;5032323;28;19917;-74
2023/09/11 03:10:33;;;;;;;;;;;;;;;18.28;100.00;101282.34;5028366;28;20335;-76
2023/09/11 03:12:58;;;;;;;;;;;;;;;18.24;100.00;101272.78;5014702;28;19928;-75
2023/09/11 03:15:27;;;;;;;;;;;;;;;18.20;100.00;101265.97;5016954;28;19917;-75
2023/09/11 03:17:52;;;;;;;;;;;;;;;18.16;100.00;101264.56;5000495;28;20510;-76
2023/09/11 03:20:17;;;;;;;;;;;;;;;18.10;100.00;101267.94;5033144;28;19928;-75
2023/09/11 03:22:43;;;;;;;;;;;;;;;18.06;100.00;101269.28;5008833;28;19921;-75
2023/09/11 03:25:08;;;;;;;;;;;;;;;18.05;100.00;101273.00;5029832;28;19966;-77
2023/09/11 03:27:33;;;;;;;;;;;;;;;18.02;100.00;101265.16;5027162;28;20359;-77
2023/09/11 03:29:58;;;;;;;;;;;;;;;18.02;100.00;101265.16;4997871;28;19927;-75
2023/09/11 03:32:23;;;;;;;;;;;;;;;18.05;100.00;101265.69;5012639;28;19995;-75
2023/09/11 03:34:53;;;;;;;;;;;;;;;18.07;100.00;101262.81;5024721;28;20019;-75
2023/09/11 03:37:19;;;;;;;;;;;;;;;18.01;100.00;101260.75;5014669;28;19986;-75
2023/09/11 03:39:44;;;;;;;;;;;;;;;17.98;100.00;101259.16;5010127;28;19920;-75
2023/09/11 03:42:10;;;;;;;;;;;;;;;17.95;100.00;101256.78;5010136;28;19978;-75
2023/09/11 03:44:35;;;;;;;;;;;;;;;17.91;100.00;101250.78;5025566;28;19958;-76
2023/09/11 03:47:00;;;;;;;;;;;;;;;17.89;100.00;101250.09;5009946;28;19963;-77
2023/09/11 03:49:25;;;;;;;;;;;;;;;17.86;100.00;101250.44;4996445;28;20035;-75
2023/09/11 03:51:50;;;;;;;;;;;;;;;17.82;100.00;101255.28;5035975;28;19920;-78
2023/09/11 03:54:16;;;;;;;;;;;;;;;17.78;100.00;101250.34;5046879;28;19925;-77
2023/09/11 03:56:41;;;;;;;;;;;;;;;17.75;100.00;101239.78;5015052;28;20242;-76
2023/09/11 03:59:06;;;;;;;;;;;;;;;17.72;100.00;101237.38;5017102;28;20019;-75
2023/09/11 04:01:31;;;;;;;;;;;;;;;17.63;100.00;101234.59;4995610;28;19924;-77
2023/09/11 04:03:56;;;;;;;;;;;;;;;17.61;100.00;101235.78;5021972;28;19997;-75
2023/09/11 04:06:22;;;;;;;;;;;;;;;17.59;100.00;101232.34;5016076;28;19932;-75
2023/09/11 04:08:48;;;;;;;;;;;;;;;17.59;100.00;101230.50;5011240;28;19928;-76
2023/09/11 04:11:14;;;;;;;;;;;;;;;17.61;100.00;101231.19;4994782;28;19921;-78
2023/09/11 04:13:39;;;;;;;;;;;;;;;17.62;100.00;101230.16;5020047;28;20341;-75
2023/09/11 04:16:05;;;;;;;;;;;;;;;17.61;100.00;101225.75;5017925;28;20435;-78
2023/09/11 04:18:30;;;;;;;;;;;;;;;17.60;100.00;101225.94;5020058;28;20346;-77
2023/09/11 04:21:02;;;;;;;;;;;;;;;17.53;100.00;101223.81;5016759;28;19963;-78
2023/09/11 04:23:27;;;;;;;;;;;;;;;17.51;100.00;101222.28;5018678;28;19924;-78
2023/09/11 04:25:53;;;;;;;;;;;;;;;17.46;100.00;101216.47;5014499;28;19928;-78
2023/09/11 04:28:18;;;;;;;;;;;;;;;17.42;100.00;101220.50;5017276;28;20605;-75
2023/09/11 04:30:43;;;;;;;;;;;;;;;17.41;100.00;101216.06;5019912;28;19920;-75
2023/09/11 04:33:09;;;;;;;;;;;;;;;17.37;100.00;101212.81;5003090;28;19920;-78
2023/09/11 04:35:34;;;;;;;;;;;;;;;17.34;100.00;101210.41;5027362;28;19920;-76
2023/09/11 04:37:59;;;;;;;;;;;;;;;17.32;100.00;101207.88;5017449;28;19931;-77
2023/09/11 04:40:25;;;;;;;;;;;;;;;17.33;100.00;101212.31;5033882;28;20831;-76
2023/09/11 04:42:50;;;;;;;;;;;;;;;17.34;100.00;101215.84;5024357;28;19928;-75
2023/09/11 04:45:15;;;;;;;;;;;;;;;17.28;100.00;101211.91;5029066;28;20880;-75
2023/09/11 04:47:40;;;;;;;;;;;;;;;17.31;100.00;101213.44;5005436;28;20059;-75
2023/09/11 04:50:06;;;;;;;;;;;;;;;17.33;100.00;101208.72;5032074;28;20400;-76
2023/09/11 04:52:31;;;;;;;;;;;;;;;17.34;100.00;101216.72;5025819;28;19964;-75
2023/09/11 04:54:56;;;;;;;;;;;;;;;17.35;100.00;101217.56;5008686;28;20338;-75
2023/09/11 04:57:21;;;;;;;;;;;;;;;17.37;100.00;101221.81;5002513;28;19920;-76
2023/09/11 04:59:46;;;;;;;;;;;;;;;17.35;100.00;101225.69;5015561;28;19920;-76
2023/09/11 05:02:12;;;;;;;;;;;;;;;17.35;100.00;101221.09;5026256;28;20042;-75
2023/09/11 05:04:38;;;;;;;;;;;;;;;17.35;100.00;101228.41;5026876;28;20007;-75
2023/09/11 05:07:03;;;;;;;;;;;;;;;17.42;100.00;101228.63;5024486;28;20221;-75
2023/09/11 05:09:30;;;;;;;;;;;;;;;17.44;100.00;101232.91;5009787;28;19931;-75
2023/09/11 05:11:55;;;;;;;;;;;;;;;17.43;100.00;101228.50;5014375;28;19994;-75
2023/09/11 05:14:20;;;;;;;;;;;;;;;17.40;100.00;101231.53;5025006;28;20475;-75
2023/09/11 05:16:45;;;;;;;;;;;;;;;17.42;100.00;101226.78;5001549;28;19937;-75
2023/09/11 05:19:11;;;;;;;;;;;;;;;17.43;100.00;101225.78;5046656;28;19952;-75
2023/09/11 05:21:36;;;;;;;;;;;;;;;17.43;100.00;101219.50;5031343;28;20015;-76
2023/09/11 05:24:02;;;;;;;;;;;;;;;17.42;100.00;101220.50;5003308;28;19917;-75
2023/09/11 05:26:27;;;;;;;;;;;;;;;17.39;100.00;101216.25;5003590;28;20375;-75
2023/09/11 05:28:52;;;;;;;;;;;;;;;17.39;100.00;101219.78;5034422;28;19925;-75
2023/09/11 05:31:18;;;;;;;;;;;;;;;17.37;100.00;101227.25;5014583;28;19967;-75
2023/09/11 05:33:43;;;;;;;;;;;;;;;17.38;100.00;101219.97;5049167;28;19966;-75
2023/09/11 05:36:08;;;;;;;;;;;;;;;17.42;100.00;101220.50;5020233;28;19952;-75
2023/09/11 05:38:33;;;;;;;;;;;;;;;17.48;100.00;101228.88;5021616;28;19925;-75
2023/09/11 05:40:59;;;;;;;;;;;;;;;17.58;100.00;101219.78;5031717;28;20386;-76
2023/09/11 05:43:27;;;;;;;;;;;;;;;17.62;100.00;101232.88;5020379;28;20242;-75
2023/09/11 05:45:53;;;;;;;;;;;;;;;17.72;100.00;101230.13;4997512;28;20371;-76
2023/09/11 05:48:18;;;;;;;;;;;;;;;17.78;100.00;101231.34;4996418;28;19925;-75
2023/09/11 05:50:43;;;;;;;;;;;;;;;17.84;100.00;101233.44;5019204;28;19920;-74
2023/09/11 05:53:08;;;;;;;;;;;;;;;17.90;100.00;101234.66;5015790;28;20010;-75
2023/09/11 05:55:34;;;;;;;;;;;;;;;18.01;100.00;101236.28;5018891;28;20314;-75
2023/09/11 05:57:59;;;;;;;;;;;;;;;18.10;100.00;101240.78;5031493;28;19921;-75
2023/09/11 06:00:26;;;;;;;;;;;;;;;18.22;100.00;101242.19;5015743;28;20245;-75
2023/09/11 06:02:51;;;;;;;;;;;;;;;18.32;100.00;101243.97;5037696;28;20393;-76
2023/09/11 06:05:16;;;;;;;;;;;;;;;18.40;100.00;101242.16;5036439;28;19921;-76
2023/09/11 06:07:42;;;;;;;;;;;;;;;18.51;100.00;101245.59;5019692;28;19931;-76
2023/09/11 06:10:09;;;;;;;;;;;;;;;18.63;100.00;101249.72;5014783;28;20024;-75
2023/09/11 06:12:34;;;;;;;;;;;;;;;18.75;100.00;101242.13;5023195;28;19921;-76
2023/09/11 06:15:00;;;;;;;;;;;;;;;18.84;100.00;101248.44;5022075;28;20203;-75
2023/09/11 06:17:25;;;;;;;;;;;;;;;18.96;100.00;101249.91;5001689;28;20465;-75
2023/09/11 06:19:50;;;;;;;;;;;;;;;19.08;100.00;101247.72;5032180;28;20249;-74
2023/09/11 06:22:15;;;;;;;;;;;;;;;19.23;100.00;101252.50;4995934;28;19925;-74
2023/09/11 06:24:41;;;;;;;;;;;;;;;19.34;100.00;101246.75;5018681;28;19964;-75
2023/09/11 06:27:06;;;;;;;;;;;;;;;19.42;100.00;101249.50;5016880;28;20000;-75
2023/09/11 06:29:32;;;;;;;;;;;;;;;19.56;100.00;101245.25;5019276;28;19957;-74
2023/09/11 06:31:57;;;;;;;;;;;;;;;19.67;100.00;101248.66;5018332;28;19919;-73
2023/09/11 06:34:22;;;;;;;;;;;;;;;19.77;100.00;101252.91;5021071;28;19928;-75
2023/09/11 06:36:47;;;;;;;;;;;;;;;19.84;100.00;101241.34;5019384;28;19925;-74
2023/09/11 06:39:13;;;;;;;;;;;;;;;19.85;100.00;101245.75;5033254;28;19924;-74
2023/09/11 06:41:38;;;;;;;;;;;;;;;19.86;100.00;101247.47;5032826;28;19931;-74
2023/09/11 06:44:04;;;;;;;;;;;;;;;19.90;100.00;101254.31;5030042;28;19925;-74
2023/09/11 06:46:29;;;;;;;;;;;;;;;19.93;100.00;101248.53;5017443;28;21650;-73
2023/09/11 06:48:54;;;;;;;;;;;;;;;19.97;100.00;101260.78;5014525;28;20018;-74
2023/09/11 06:51:19;;;;;;;;;;;;;;;20.02;100.00;101257.53;4999137;28;19963;-77
2023/09/11 06:53:44;;;;;;;;;;;;;;;20.10;100.00;101262.13;5047002;28;20008;-73
2023/09/11 06:56:10;;;;;;;;;;;;;;;20.16;100.00;101256.81;5028864;28;19921;-72
2023/09/11 06:58:38;;;;;;;;;;;;;;;20.30;100.00;101263.44;5001738;28;19965;-76
2023/09/11 07:01:03;;;;;;;;;;;;;;;20.44;100.00;101247.41;5003195;28;19928;-73
2023/09/11 07:03:28;;;;;;;;;;;;;;;20.53;100.00;101247.19;5004973;28;19962;-75
2023/09/11 07:05:54;;;;;;;;;;;;;;;20.65;100.00;101242.22;5018629;28;19921;-75
2023/09/11 07:08:19;;;;;;;;;;;;;;;20.79;100.00;101237.09;5013990;28;20043;-75
2023/09/11 07:10:47;;;;;;;;;;;;;;;20.87;100.00;101234.31;5015820;28;19924;-73
2023/09/11 07:13:13;;;;;;;;;;;;;;;20.99;100.00;101234.75;5021521;28;19921;-75
2023/09/11 07:15:38;;;;;;;;;;;;;;;21.08;100.00;101233.69;5030085;28;20381;-74
2023/09/11 07:18:03;;;;;;;;;;;;;;;21.18;100.00;101235.34;5028648;28;20035;-74
2023/09/11 07:20:28;;;;;;;;;;;;;;;21.25;100.00;101233.56;5019889;28;19966;-74
2023/09/11 07:22:54;;;;;;;;;;;;;;;21.23;100.00;101233.75;5004873;28;20018;-76
2023/09/11 07:25:22;;;;;;;;;;;;;;;21.32;100.00;101241.91;5014494;28;20002;-75
2023/09/11 07:27:47;;;;;;;;;;;;;;;21.49;100.00;101229.84;5016232;28;20007;-74
2023/09/11 07:30:13;;;;;;;;;;;;;;;21.60;100.00;101230.41;5015698;28;20419;-77
2023/09/11 07:32:38;;;;;;;;;;;;;;;21.67;100.00;101232.28;5031393;28;19925;-74
2023/09/11 07:35:03;;;;;;;;;;;;;;;21.72;100.00;101229.00;5030706;28;19948;-75
2023/09/11 07:37:28;;;;;;;;;;;;;;;21.83;100.00;101222.22;5017080;28;20373;-75
2023/09/11 07:39:54;;;;;;;;;;;;;;;21.90;100.00;101230.53;5002725;28;20019;-74
2023/09/11 07:42:19;;;;;;;;;;;;;;;22.02;100.00;101231.78;5005785;28;19924;-74
2023/09/11 07:44:44;;;;;;;;;;;;;;;22.12;100.00;101223.31;5030172;28;19946;-75
2023/09/11 07:47:09;;;;;;;;;;;;;;;22.27;100.00;101240.56;5010535;28;19921;-78
2023/09/11 07:49:35;;;;;;;;;;;;;;;22.35;100.00;101236.94;5008217;28;19921;-74
2023/09/11 07:52:00;;;;;;;;;;;;;;;22.44;100.00;101234.97;5017112;28;20026;-75
2023/09/11 07:54:25;;;;;;;;;;;;;;;22.43;100.00;101244.22;5021058;28;20333;-76
2023/09/11 07:56:52;;;;;;;;;;;;;;;22.47;100.00;101240.06;5016956;28;20389;-74
2023/09/11 07:59:17;;;;;;;;;;;;;;;22.69;100.00;101238.25;5029277;28;19929;-74
2023/09/11 08:01:42;;;;;;;;;;;;;;;22.88;100.00;101238.72;5031834;28;19924;-77
2023/09/11 08:04:07;;;;;;;;;;;;;;;23.03;100.00;101239.53;5031723;28;19920;-76
2023/09/11 08:06:33;;;;;;;;;;;;;;;23.11;100.00;101235.81;5034387;28;20226;-76
2023/09/11 08:09:03;;;;;;;;;;;;;;;23.32;100.00;101234.16;5021337;28;19970;-76
2023/09/11 08:11:28;;;;;;;;;;;;;;;23.32;100.00;101228.69;5027911;28;19924;-74
2023/09/11 08:13:53;;;;;;;;;;;;;;;23.48;100.00;101241.28;5024059;28;19936;-75
2023/09/11 08:16:19;;;;;;;;;;;;;;;23.53;100.00;101249.75;5034160;28;19968;-77
2023/09/11 08:18:44;;;;;;;;;;;;;;;23.42;100.00;101253.03;5028174;28;20023;-74
2023/09/11 08:21:09;;;;;;;;;;;;;;;23.49;100.00;101251.19;5031454;28;20072;-77
2023/09/11 08:23:34;;;;;;;;;;;;;;;23.69;100.00;101245.91;5021737;28;20268;-75
2023/09/11 08:26:01;;;;;;;;;;;;;;;23.88;100.00;101251.75;5014162;28;19990;-78
2023/09/11 08:28:27;;;;;;;;;;;;;;;23.91;100.00;101251.38;5034061;28;20256;-77
2023/09/11 08:30:52;;;;;;;;;;;;;;;24.16;100.00;101256.44;5032398;28;20428;-77
2023/09/11 08:33:17;;;;;;;;;;;;;;;24.31;100.00;101259.94;5012040;28;19967;-77
2023/09/11 08:35:48;;;;;;;;;;;;;;;24.47;100.00;101260.66;5016689;28;20012;-74
2023/09/11 08:38:13;;;;;;;;;;;;;;;24.59;100.00;101261.78;5017211;28;20221;-76
2023/09/11 08:40:38;;;;;;;;;;;;;;;24.67;100.00;101266.25;5034281;28;19978;-76
2023/09/11 08:43:04;;;;;;;;;;;;;;;24.77;100.00;101263.16;5023612;28;20006;-75
2023/09/11 08:45:29;;;;;;;;;;;;;;;24.80;100.00;101249.88;4997760;28;20896;-75
2023/09/11 08:47:55;;;;;;;;;;;;;;;24.94;100.00;101258.19;5033278;28;19921;-76
2023/09/11 08:50:20;;;;;;;;;;;;;;;25.04;100.00;101252.28;5027053;28;19921;-76
2023/09/11 08:52:46;;;;;;;;;;;;;;;25.14;100.00;101267.34;5015162;28;19958;-76
2023/09/11 08:55:12;;;;;;;;;;;;;;;25.07;100.00;101258.22;5023957;28;19986;-76
2023/09/11 08:57:39;;;;;;;;;;;;;;;25.21;100.00;101258.28;5015240;28;20371;-76
2023/09/11 09:00:06;;;;;;;;;;;;;;;25.34;100.00;101260.19;5015323;28;19971;-76
2023/09/11 09:02:32;;;;;;;;;;;;;;;25.32;100.00;101263.16;5026265;28;19982;-77
2023/09/11 09:04:57;;;;;;;;;;;;;;;25.40;100.00;101262.13;5015881;28;20298;-76
2023/09/11 09:07:22;;;;;;;;;;;;;;;25.54;100.00;101261.13;5028996;28;19928;-76
2023/09/11 09:09:47;;;;;;;;;;;;;;;25.67;100.00;101259.44;5029320;28;20408;-76
2023/09/11 09:12:13;;;;;;;;;;;;;;;25.53;100.00;101258.59;5017773;28;21436;-74
2023/09/11 09:14:41;;;;;;;;;;;;;;;25.78;100.00;101260.72;5016929;28;20652;-77
2023/09/11 09:17:06;;;;;;;;;;;;;;;25.82;100.00;101257.34;5024969;28;20422;-76
2023/09/11 09:19:33;;;;;;;;;;;;;;;26.02;100.00;101254.59;5016237;28;19964;-76
2023/09/11 09:22:05;;;;;;;;;;;;;;;26.18;100.00;101255.22;5014859;28;20357;-75
2023/09/11 09:24:33;;;;;;;;;;;;;;;26.32;100.00;101248.66;5017667;28;20306;-75
2023/09/11 09:26:59;;;;;;;;;;;;;;;26.55;100.00;101257.47;4997989;28;19964;-75
2023/09/11 09:29:24;;;;;;;;;;;;;;;26.68;100.00;101253.84;5027802;28;19920;-75
2023/09/11 09:31:50;;;;;;;;;;;;;;;26.53;100.00;101252.19;5028971;28;19928;-76
2023/09/11 09:34:15;;;;;;;;;;;;;;;26.79;100.00;101248.50;4999108;28;19956;-76
2023/09/11 09:36:50;;;;;;;;;;;;;;;26.94;100.00;101241.91;5015831;28;19980;-75
2023/09/11 09:39:15;;;;;;;;;;;;;;;27.08;100.00;101251.78;5047092;28;19958;-76
2023/09/11 09:42:07;;;;;;;;;;;;;;;27.17;100.00;101240.50;5033329;28;20019;-76
2023/09/11 09:44:33;;;;;;;;;;;;;;;27.35;100.00;101245.28;5029292;28;19920;-75
2023/09/11 09:47:11;;;;;;;;;;;;;;;27.58;97.10;101243.88;5046092;28;20015;-74
2023/09/11 09:49:43;;;;;;;;;;;;;;;27.68;93.67;101252.47;5012786;28;20234;-76
2023/09/11 09:52:09;;;;;;;;;;;;;;;27.66;84.34;101244.44;5018844;28;19917;-76
2023/09/11 09:55:04;;;;;;;;;;;;;;;27.66;84.53;101244.44;5027822;28;19979;-75
2023/09/11 09:57:30;;;;;;;;;;;;;;;27.96;86.82;101234.63;5017961;28;19928;-76
2023/09/11 09:59:57;;;;;;;;;;;;;;;28.13;87.48;101241.31;4998264;28;19925;-75
2023/09/11 10:02:29;;;;;;;;;;;;;;;28.32;87.59;101246.03;5027184;28;19932;-76
2023/09/11 10:04:55;;;;;;;;;;;;;;;28.29;77.32;101241.78;5013571;28;19925;-76
2023/09/11 10:07:39;;;;;;;;;;;;;;;28.44;76.09;101241.41;5006931;28;19940;-75
2023/09/11 10:10:23;;;;;;;;;;;;;;;28.66;78.11;101235.41;5034451;28;20998;-75
2023/09/11 10:13:03;;;;;;;;;;;;;;;28.69;80.73;101243.25;5030888;28;20357;-74
2023/09/11 10:15:29;;;;;;;;;;;;;;;28.74;73.40;101240.63;5031294;28;20282;-75
2023/09/11 10:17:54;;;;;;;;;;;;;;;28.93;77.00;101238.72;5017144;28;19924;-75
2023/09/11 10:20:20;;;;;;;;;;;;;;;28.99;77.71;101234.19;5033407;28;20352;-74
2023/09/11 10:22:45;;;;;;;;;;;;;;;29.13;72.83;101243.13;5024750;28;19925;-74
2023/09/11 10:25:11;;;;;;;;;;;;;;;28.92;65.32;101234.28;5037760;28;19929;-74
2023/09/11 10:27:36;;;;;;;;;;;;;;;29.29;62.43;101236.94;5016865;28;19923;-74
2023/09/11 10:30:03;;;;;;;;;;;;;;;29.57;60.88;101238.22;5045116;28;20022;-75
2023/09/11 10:32:33;;;;;;;;;;;;;;;29.55;55.00;101237.63;5032245;28;20539;-74
2023/09/11 10:34:59;;;;;;;;;;;;;;;29.90;61.03;101236.00;5034711;28;20379;-76
2023/09/11 10:37:24;;;;;;;;;;;;;;;29.89;53.92;101232.38;5018816;28;20035;-74
2023/09/11 10:39:49;;;;;;;;;;;;;;;30.20;58.34;101223.97;5032359;28;19916;-75
2023/09/11 10:42:14;;;;;;;;;;;;;;;30.27;53.89;101219.16;5034741;28;19925;-75
2023/09/11 10:44:40;;;;;;;;;;;;;;;30.41;53.49;101228.06;5019741;28;19920;-74
2023/09/11 10:47:05;;;;;;;;;;;;;;;30.66;57.85;101226.94;5030284;28;19924;-76
2023/09/11 10:49:37;;;;;;;;;;;;;;;30.79;54.77;101225.81;5031462;28;19925;-75
2023/09/11 10:52:03;;;;;;;;;;;;;;;31.17;53.71;101221.59;5031226;28;19920;-75
2023/09/11 10:54:28;;;;;;;;;;;;;;;31.29;50.15;101223.44;5034618;28;20009;-75
2023/09/11 10:56:54;;;;;;;;;;;;;;;31.47;50.33;101225.16;5017365;28;19928;-74
2023/09/11 10:59:23;;;;;;;;;;;;;;;31.59;51.46;101223.16;5029905;28;20043;-74
2023/09/11 11:01:48;;;;;;;;;;;;;;;31.51;52.29;101221.66;5029830;28;21273;-75
2023/09/11 11:04:14;;;;;;;;;;;;;;;31.66;50.39;101217.44;5020474;28;19920;-75
2023/09/11 11:06:42;;;;;;;;;;;;;;;32.36;51.31;101212.41;5024942;28;20130;-73
2023/09/11 11:09:22;;;;;;;;;;;;;;;32.77;50.20;101223.19;5015525;28;19956;-74
2023/09/11 11:11:49;;;;;;;;;;;;;;;33.28;49.84;101222.09;5007757;28;20151;-75
2023/09/11 11:14:15;;;;;;;;;;;;;;;33.75;47.18;101207.50;5036612;28;20614;-75
2023/09/11 11:16:53;;;;;;;;;;;;;;;32.65;50.12;101217.78;5029318;28;19944;-74
2023/09/11 11:19:28;;;;;;;;;;;;;;;33.17;48.03;101218.38;5013341;28;20069;-75
2023/09/11 11:21:53;;;;;;;;;;;;;;;33.82;46.61;101210.06;5014936;28;20039;-76
2023/09/11 11:24:20;;;;;;;;;;;;;;;33.92;43.68;101220.44;5032733;28;19925;-76
2023/09/11 11:26:45;;;;;;;;;;;;;;;34.29;42.23;101208.44;5002695;28;19921;-75
2023/09/11 11:29:11;;;;;;;;;;;;;;;33.36;45.15;101213.28;5019100;28;19924;-75
2023/09/11 11:31:36;;;;;;;;;;;;;;;33.94;43.12;101215.47;5031237;28;19967;-75
2023/09/11 11:34:01;;;;;;;;;;;;;;;34.34;41.77;101204.81;5022317;28;20007;-74
2023/09/11 11:36:26;;;;;;;;;;;;;;;33.82;43.85;101214.78;5036346;28;19925;-76
2023/09/11 11:38:53;;;;;;;;;;;;;;;34.10;44.23;101220.00;5038407;28;19921;-77
2023/09/11 11:41:18;;;;;;;;;;;;;;;34.74;42.91;101219.22;5017912;28;19931;-75
2023/09/11 11:43:43;;;;;;;;;;;;;;;35.17;41.16;101216.28;5023650;28;19921;-75
2023/09/11 11:46:09;;;;;;;;;;;;;;;35.59;40.66;101209.63;5036857;28;20252;-74
2023/09/11 11:48:37;;;;;;;;;;;;;;;35.87;39.65;101211.00;5030866;28;20035;-75
2023/09/11 11:51:02;;;;;;;;;;;;;;;35.97;38.93;101212.97;5020138;28;19925;-74
2023/09/11 11:53:27;;;;;;;;;;;;;;;36.39;39.73;101210.88;5019116;28;19924;-75
2023/09/11 11:55:54;;;;;;;;;;;;;;;35.76;42.76;101214.09;5034463;28;20050;-75
2023/09/11 11:58:20;;;;;;;;;;;;;;;34.10;45.04;101206.06;5004161;28;20343;-76
2023/09/11 12:01:05;;;;;;;;;;;;;;;35.28;41.74;101202.06;5032974;28;19952;-76
2023/09/11 12:03:44;;;;;;;;;;;;;;;35.26;41.02;101203.44;5033673;28;19921;-76
2023/09/11 12:06:09;;;;;;;;;;;;;;;36.00;40.52;101208.75;5017740;28;19917;-76
2023/09/11 12:08:34;;;;;;;;;;;;;;;36.40;40.88;101206.97;5022041;28;19993;-76
2023/09/11 12:10:59;;;;;;;;;;;;;;;35.52;40.31;101209.91;5021002;28;20073;-75
2023/09/11 12:13:25;;;;;;;;;;;;;;;34.45;43.11;101209.34;5023725;28;20000;-75
2023/09/11 12:15:54;;;;;;;;;;;;;;;35.33;43.93;101201.22;5018081;28;19924;-75
2023/09/11 12:18:20;;;;;;;;;;;;;;;36.55;40.29;101203.25;5042446;28;20019;-76
2023/09/11 12:20:53;;;;;;;;;;;;;;;36.53;40.02;101211.13;5022632;28;19921;-74
2023/09/11 12:23:18;;;;;;;;;;;;;;;36.95;38.28;101208.94;5017933;28;19964;-74